createdAt,value
2019-01-05T00:02:07.843Z,16.40
2019-01-05T00:04:57.388Z,16.17
2019-01-05T00:07:58.770Z,16.67
2019-01-05T00:10:48.494Z,16.17
2019-01-05T00:13:34.110Z,16.13
2019-01-05T00:16:23.930Z,16.77
2019-01-05T00:19:09.899Z,18.37
2019-01-05T00:21:58.017Z,18.00
2019-01-05T00:24:43.261Z,18.80
2019-01-05T00:27:27.819Z,18.03
2019-01-05T00:30:20.847Z,18.83
2019-01-05T00:32:58.707Z,17.90
2019-01-05T00:35:56.377Z,17.63
2019-01-05T00:38:42.381Z,19.93
2019-01-05T00:41:19.841Z,19.90
2019-01-05T00:44:13.278Z,19.53
2019-01-05T00:46:58.942Z,21.67
2019-01-05T00:49:52.353Z,22.17
2019-01-05T00:52:38.274Z,21.87
2019-01-05T00:55:23.702Z,21.93
2019-01-05T00:58:09.279Z,22.37
2019-01-05T01:01:04.756Z,22.53
2019-01-05T01:04:09.710Z,22.43
2019-01-05T01:06:46.526Z,21.47
2019-01-05T01:09:25.922Z,23.33
2019-01-05T01:12:19.086Z,24.53
2019-01-05T01:15:05.930Z,23.23
2019-01-05T01:17:51.202Z,25.70
2019-01-05T01:20:38.463Z,25.70
2019-01-05T01:23:34.870Z,27.53
2019-01-05T01:26:20.380Z,25.37
2019-01-05T01:29:05.952Z,28.83
2019-01-05T01:31:41.690Z,27.70
2019-01-05T01:34:20.814Z,29.27
2019-01-05T01:37:06.274Z,29.37
2019-01-05T01:39:47.319Z,32.77
2019-01-05T01:42:34.248Z,31.77
2019-01-05T01:45:19.675Z,31.67
2019-01-05T01:48:14.066Z,31.57
2019-01-05T01:51:01.893Z,29.07
2019-01-05T01:53:47.380Z,31.87
2019-01-05T01:56:48.857Z,32.20
2019-01-05T01:59:50.109Z,29.53
2019-01-05T02:02:35.129Z,30.60
2019-01-05T02:05:25.196Z,27.20
2019-01-05T02:08:12.404Z,28.50
2019-01-05T02:11:05.635Z,29.70
2019-01-05T02:13:54.743Z,27.23
2019-01-05T02:16:50.723Z,26.50
2019-01-05T02:19:47.358Z,25.40
2019-01-05T02:23:18.196Z,26.27
2019-01-05T02:26:48.417Z,25.37
2019-01-05T02:30:06.237Z,26.57
2019-01-05T02:33:35.211Z,24.83
2019-01-05T02:36:45.906Z,25.17
2019-01-05T02:40:19.854Z,24.47
2019-01-05T02:43:59.316Z,24.70
2019-01-05T02:47:35.573Z,25.47
2019-01-05T02:50:48.878Z,25.57
2019-01-05T02:54:02.205Z,25.57
2019-01-05T02:57:43.624Z,24.43
2019-01-05T03:01:20.889Z,25.40
2019-01-05T03:04:31.808Z,25.10
2019-01-05T03:08:01.984Z,24.57
2019-01-05T03:11:29.872Z,23.70
2019-01-05T03:14:41.607Z,24.83
2019-01-05T03:18:07.275Z,23.77
2019-01-05T03:21:42.003Z,23.47
2019-01-05T03:25:08.725Z,23.87
2019-01-05T03:28:50.720Z,24.67
2019-01-05T03:32:23.067Z,23.87
2019-01-05T03:35:59.535Z,26.73
2019-01-05T03:39:19.705Z,22.87
2019-01-05T03:43:06.807Z,22.83
2019-01-05T03:46:26.224Z,23.30
2019-01-05T03:49:54.782Z,22.50
2019-01-05T03:53:39.664Z,21.87
2019-01-05T03:57:00.111Z,21.93
2019-01-05T04:00:16.372Z,21.27
2019-01-05T04:04:01.822Z,22.47
2019-01-05T04:07:35.415Z,20.37
2019-01-05T04:11:07.096Z,22.23
2019-01-05T04:14:31.342Z,23.30
2019-01-05T04:18:04.628Z,24.43
2019-01-05T04:21:24.743Z,26.07
2019-01-05T04:24:39.943Z,25.00
2019-01-05T04:28:03.768Z,24.83
2019-01-05T04:31:28.268Z,25.10
2019-01-05T04:34:57.965Z,25.13
2019-01-05T04:38:31.041Z,26.83
2019-01-05T04:41:38.116Z,27.93
2019-01-05T04:44:55.179Z,26.07
2019-01-05T04:48:13.473Z,26.43
2019-01-05T04:51:20.945Z,25.50
2019-01-05T04:54:56.014Z,25.80
2019-01-05T04:58:22.041Z,25.63
2019-01-05T05:01:54.077Z,24.50
2019-01-05T05:05:54.462Z,26.20
2019-01-05T05:09:19.512Z,23.57
2019-01-05T05:12:38.696Z,23.50
2019-01-05T05:15:45.393Z,23.17
2019-01-05T05:19:24.820Z,20.57
2019-01-05T05:23:02.650Z,20.70
2019-01-05T05:26:32.509Z,21.20
2019-01-05T05:30:10.166Z,20.67
2019-01-05T05:33:32.718Z,22.27
2019-01-05T05:37:00.257Z,22.97
2019-01-05T05:40:35.373Z,23.50
2019-01-05T05:44:15.474Z,27.30
2019-01-05T05:48:01.413Z,24.50
2019-01-05T05:51:23.537Z,26.43
2019-01-05T05:55:01.536Z,24.00
2019-01-05T05:58:25.287Z,26.17
2019-01-05T06:01:47.318Z,29.30
2019-01-05T06:05:30.465Z,29.60
2019-01-05T06:09:06.558Z,29.20
2019-01-05T06:12:43.128Z,29.17
2019-01-05T06:16:04.102Z,30.17
2019-01-05T06:19:46.034Z,30.27
2019-01-05T06:23:21.873Z,30.63
2019-01-05T06:26:43.563Z,30.90
2019-01-05T06:30:06.510Z,30.23
2019-01-05T06:33:33.250Z,30.27
2019-01-05T06:37:01.733Z,32.60
2019-01-05T06:40:17.145Z,34.33
2019-01-05T06:43:54.154Z,31.40
2019-01-05T06:47:08.050Z,33.90
2019-01-05T06:50:30.882Z,33.57
2019-01-05T06:53:41.401Z,34.23
2019-01-05T06:57:19.965Z,32.83
2019-01-05T07:00:58.775Z,33.17
2019-01-05T07:04:32.081Z,31.03
2019-01-05T07:08:33.659Z,31.27
2019-01-05T07:11:47.241Z,29.30
2019-01-05T07:15:06.815Z,29.17
2019-01-05T07:18:30.572Z,27.87
2019-01-05T07:22:00.597Z,30.37
2019-01-05T07:25:33.996Z,27.03
2019-01-05T07:29:01.981Z,25.80
2019-01-05T07:32:15.533Z,27.30
2019-01-05T07:35:41.404Z,24.30
2019-01-05T07:39:06.996Z,25.63
2019-01-05T07:42:28.630Z,23.03
2019-01-05T07:45:53.641Z,23.77
2019-01-05T07:49:16.793Z,23.13
2019-01-05T07:52:38.542Z,21.20
2019-01-05T07:56:04.076Z,19.73
2019-01-05T07:59:52.721Z,19.87
2019-01-05T08:03:24.512Z,20.27
2019-01-05T08:07:00.562Z,19.67
2019-01-05T08:10:43.810Z,20.50
2019-01-05T08:14:20.051Z,21.10
2019-01-05T08:18:01.640Z,20.30
2019-01-05T08:21:27.706Z,19.83
2019-01-05T08:24:55.863Z,18.30
2019-01-05T08:28:29.075Z,19.60
2019-01-05T08:32:03.972Z,16.60
2019-01-05T08:35:29.352Z,17.33
2019-01-05T08:39:17.453Z,16.63
2019-01-05T08:43:05.421Z,17.23
2019-01-05T08:46:46.517Z,17.23
2019-01-05T08:50:06.288Z,17.00
2019-01-05T08:53:33.870Z,16.57
2019-01-05T08:57:10.906Z,17.73
2019-01-05T09:00:47.566Z,16.80
2019-01-05T09:04:19.744Z,14.67
2019-01-05T09:07:26.007Z,16.07
2019-01-05T09:10:46.549Z,15.73
2019-01-05T09:14:14.361Z,16.80
2019-01-05T09:17:50.537Z,17.30
2019-01-05T09:21:13.441Z,16.47
2019-01-05T09:24:39.382Z,15.70
2019-01-05T09:28:25.794Z,16.13
2019-01-05T09:32:01.929Z,16.20
2019-01-05T09:35:48.660Z,15.10
2019-01-05T09:39:26.101Z,16.40
2019-01-05T09:43:15.871Z,15.63
2019-01-05T09:46:46.081Z,15.87
2019-01-05T09:50:18.781Z,15.23
2019-01-05T09:53:50.271Z,14.33
2019-01-05T09:56:58.754Z,15.47
2019-01-05T10:00:33.647Z,14.20
2019-01-05T10:03:51.416Z,16.37
2019-01-05T10:07:35.431Z,15.93
2019-01-05T10:11:01.138Z,15.20
2019-01-05T10:14:15.041Z,13.87
2019-01-05T10:17:54.757Z,13.07
2019-01-05T10:21:24.829Z,12.07
2019-01-05T10:24:53.236Z,12.40
2019-01-05T10:28:27.977Z,10.63
2019-01-05T10:32:20.143Z,11.37
2019-01-05T10:35:53.983Z,9.83
2019-01-05T10:39:11.015Z,9.80
2019-01-05T10:42:27.397Z,9.03
2019-01-05T10:46:02.711Z,8.47
2019-01-05T10:49:38.758Z,8.33
2019-01-05T10:53:18.823Z,7.97
2019-01-05T10:56:27.331Z,7.90
2019-01-05T10:59:55.921Z,8.67
2019-01-05T11:03:36.000Z,7.33
2019-01-05T11:07:07.700Z,7.63
2019-01-05T11:10:54.639Z,11.17
2019-01-05T11:14:40.600Z,7.37
2019-01-05T11:18:23.372Z,6.33
2019-01-05T11:21:26.335Z,6.13
2019-01-05T11:24:38.797Z,6.63
2019-01-05T11:28:00.639Z,7.17
2019-01-05T11:31:38.069Z,6.37
2019-01-05T11:35:13.012Z,8.03
2019-01-05T11:38:42.455Z,6.20
2019-01-05T11:42:23.543Z,6.27
2019-01-05T11:46:15.987Z,6.10
2019-01-05T11:49:38.872Z,5.27
2019-01-05T11:53:04.714Z,6.57
2019-01-05T11:56:27.558Z,5.47
2019-01-05T12:00:17.559Z,6.60
2019-01-05T12:03:43.091Z,5.67
2019-01-05T12:07:03.732Z,5.77
2019-01-05T12:10:44.619Z,4.90
2019-01-05T12:14:23.685Z,5.10
2019-01-05T12:18:04.765Z,5.47
2019-01-05T12:21:30.643Z,10.47
2019-01-05T12:25:01.044Z,4.80
2019-01-05T12:28:38.130Z,4.70
2019-01-05T12:31:55.356Z,4.53
2019-01-05T12:35:45.398Z,4.30
2019-01-05T12:39:11.652Z,5.10
2019-01-05T12:42:44.874Z,4.63
2019-01-05T12:46:10.138Z,5.33
2019-01-05T12:50:11.480Z,5.33
2019-01-05T12:54:11.893Z,5.70
2019-01-05T12:57:48.987Z,5.50
2019-01-05T13:01:15.095Z,4.77
2019-01-05T13:04:51.956Z,5.37
2019-01-05T13:08:10.246Z,5.30
2019-01-05T13:11:43.383Z,5.27
2019-01-05T13:14:57.785Z,4.93
2019-01-05T13:18:23.718Z,5.17
2019-01-05T13:22:11.895Z,4.90
2019-01-05T13:25:52.601Z,4.70
2019-01-05T13:29:23.027Z,4.80
2019-01-05T13:32:37.391Z,4.70
2019-01-05T13:36:09.213Z,5.20
2019-01-05T13:39:42.001Z,7.27
2019-01-05T13:43:19.884Z,4.30
2019-01-05T13:46:47.355Z,3.73
2019-01-05T13:50:09.741Z,4.00
2019-01-05T13:53:31.207Z,4.37
2019-01-05T13:56:37.942Z,4.17
2019-01-05T13:59:36.610Z,3.67
2019-01-05T14:02:28.868Z,4.33
2019-01-05T14:05:15.653Z,4.17
2019-01-05T14:08:17.756Z,4.20
2019-01-05T14:11:04.516Z,4.47
2019-01-05T14:14:00.200Z,4.07
2019-01-05T14:16:45.547Z,4.73
2019-01-05T14:19:34.873Z,4.83
2019-01-05T14:22:28.112Z,4.73
2019-01-05T14:25:20.943Z,4.40
2019-01-05T14:28:16.600Z,6.20
2019-01-05T14:31:03.411Z,4.20
2019-01-05T14:33:52.939Z,4.40
2019-01-05T14:36:33.392Z,4.33
2019-01-05T14:39:19.767Z,4.97
2019-01-05T14:42:09.572Z,4.57
2019-01-05T14:45:02.019Z,5.73
2019-01-05T14:47:48.811Z,7.53
2019-01-05T14:50:47.489Z,5.17
2019-01-05T14:53:36.734Z,9.23
2019-01-05T14:56:21.786Z,7.97
2019-01-05T14:59:17.673Z,8.30
2019-01-05T15:02:03.054Z,8.50
2019-01-05T15:05:09.247Z,5.33
2019-01-05T15:08:05.890Z,12.90
2019-01-05T15:11:04.603Z,5.30
2019-01-05T15:13:40.407Z,5.20
2019-01-05T15:16:25.807Z,7.30
2019-01-05T15:19:24.745Z,6.53
2019-01-05T15:22:07.694Z,5.83
2019-01-05T15:24:52.621Z,4.37
2019-01-05T15:27:36.906Z,4.63
2019-01-05T15:30:42.606Z,4.67
2019-01-05T15:33:42.866Z,4.70
2019-01-05T15:36:35.278Z,4.53
2019-01-05T15:39:28.928Z,4.77
2019-01-05T15:42:13.961Z,5.40
2019-01-05T15:44:58.922Z,4.90
2019-01-05T15:47:57.296Z,4.50
2019-01-05T15:50:42.570Z,4.90
2019-01-05T15:53:24.394Z,6.00
2019-01-05T15:56:19.987Z,6.53
2019-01-05T15:59:05.643Z,5.70
2019-01-05T16:02:07.339Z,4.80
2019-01-05T16:04:52.607Z,5.17
2019-01-05T16:07:48.778Z,5.10
2019-01-05T16:10:33.801Z,5.20
2019-01-05T16:13:18.775Z,5.50
2019-01-05T16:16:03.803Z,5.47
2019-01-05T16:19:02.675Z,5.50
2019-01-05T16:21:47.972Z,5.00
2019-01-05T16:24:46.417Z,7.00
2019-01-05T16:27:39.369Z,6.27
2019-01-05T16:30:38.291Z,5.13
2019-01-05T16:33:23.416Z,5.80
2019-01-05T16:36:07.910Z,5.30
2019-01-05T16:39:07.548Z,5.03
2019-01-05T16:41:52.541Z,5.60
2019-01-05T16:44:44.846Z,5.87
2019-01-05T16:47:39.056Z,5.23
2019-01-05T16:50:29.108Z,5.53
2019-01-05T16:53:24.796Z,6.37
2019-01-05T16:56:14.102Z,6.43
2019-01-05T16:58:59.427Z,6.17
2019-01-05T17:01:48.730Z,7.53
2019-01-05T17:04:53.513Z,6.27
2019-01-05T17:07:38.603Z,6.33
2019-01-05T17:10:31.611Z,6.83
2019-01-05T17:13:33.333Z,6.23
2019-01-05T17:16:32.022Z,6.80
2019-01-05T17:19:21.680Z,7.27
2019-01-05T17:22:08.499Z,7.17
2019-01-05T17:24:53.427Z,7.30
2019-01-05T17:27:39.137Z,7.03
2019-01-05T17:30:18.009Z,6.33
2019-01-05T17:33:03.498Z,7.03
2019-01-05T17:35:48.763Z,6.20
2019-01-05T17:38:32.799Z,5.27
2019-01-05T17:41:18.582Z,5.80
2019-01-05T17:44:07.372Z,6.47
2019-01-05T17:46:54.239Z,5.60
2019-01-05T17:50:10.381Z,6.10
2019-01-05T17:52:55.966Z,5.97
2019-01-05T17:55:41.699Z,8.00
2019-01-05T17:58:27.384Z,9.43
2019-01-05T18:01:09.737Z,8.90
2019-01-05T18:03:55.282Z,7.93
2019-01-05T18:06:56.364Z,8.83
2019-01-05T18:10:01.100Z,7.70
2019-01-05T18:13:01.070Z,7.20
2019-01-05T18:15:39.637Z,6.87
2019-01-05T18:18:29.995Z,7.63
2019-01-05T18:21:20.382Z,10.13
2019-01-05T18:24:09.652Z,8.70
2019-01-05T18:26:56.200Z,7.07
2019-01-05T18:29:51.925Z,7.57
2019-01-05T18:32:44.574Z,7.40
2019-01-05T18:35:30.112Z,7.17
2019-01-05T18:38:14.701Z,7.30
2019-01-05T18:41:00.108Z,7.27
2019-01-05T18:43:45.548Z,6.53
2019-01-05T18:46:31.562Z,6.43
2019-01-05T18:49:21.414Z,7.90
2019-01-05T18:52:06.927Z,6.63
2019-01-05T18:54:52.885Z,8.47
2019-01-05T18:57:42.713Z,7.93
2019-01-05T19:00:28.339Z,6.90
2019-01-05T19:03:20.948Z,6.50
2019-01-05T19:06:13.148Z,7.53
2019-01-05T19:09:09.786Z,16.63
2019-01-05T19:12:08.604Z,7.03
2019-01-05T19:14:53.421Z,7.70
2019-01-05T19:17:49.383Z,7.53
2019-01-05T19:20:36.280Z,6.47
2019-01-05T19:23:21.789Z,7.80
2019-01-05T19:26:07.241Z,7.20
2019-01-05T19:28:54.144Z,13.77
2019-01-05T19:31:52.330Z,12.07
2019-01-05T19:34:42.052Z,11.43
2019-01-05T19:37:41.282Z,9.23
2019-01-05T19:40:29.702Z,27.33
2019-01-05T19:43:15.290Z,19.10
2019-01-05T19:45:59.236Z,24.50
2019-01-05T19:48:46.059Z,17.13
2019-01-05T19:51:32.939Z,12.73
2019-01-05T19:54:18.155Z,19.10
2019-01-05T19:57:03.211Z,8.03
2019-01-05T19:59:43.793Z,11.00
2019-01-05T20:02:29.659Z,12.53
2019-01-05T20:05:29.861Z,12.30
2019-01-05T20:08:15.411Z,9.90
2019-01-05T20:11:02.261Z,10.10
2019-01-05T20:13:49.094Z,10.50
2019-01-05T20:16:34.793Z,7.57
2019-01-05T20:19:30.271Z,8.03
2019-01-05T20:22:10.646Z,8.43
2019-01-05T20:25:03.761Z,7.93
2019-01-05T20:27:49.355Z,7.93
2019-01-05T20:30:42.205Z,6.90
2019-01-05T20:33:47.170Z,8.87
2019-01-05T20:36:31.590Z,9.20
2019-01-05T20:39:37.263Z,7.40
2019-01-05T20:42:27.902Z,8.23
2019-01-05T20:45:20.771Z,7.43
2019-01-05T20:48:10.647Z,7.70
2019-01-05T20:50:57.454Z,8.80
2019-01-05T20:53:57.840Z,8.13
2019-01-05T20:56:58.276Z,6.93
2019-01-05T20:59:53.940Z,6.17
2019-01-05T21:02:56.016Z,5.83
2019-01-05T21:05:41.562Z,6.30
2019-01-05T21:08:31.407Z,6.30
2019-01-05T21:11:24.209Z,5.93
2019-01-05T21:14:09.380Z,6.20
2019-01-05T21:16:55.127Z,6.27
2019-01-05T21:19:41.093Z,6.30
2019-01-05T21:22:26.446Z,6.90
2019-01-05T21:25:22.371Z,5.77
2019-01-05T21:28:12.001Z,6.33
2019-01-05T21:30:57.159Z,6.43
2019-01-05T21:33:42.715Z,7.40
2019-01-05T21:36:28.058Z,6.67
2019-01-05T21:39:13.455Z,7.10
2019-01-05T21:41:58.658Z,6.23
2019-01-05T21:44:48.744Z,6.70
2019-01-05T21:47:33.938Z,5.70
2019-01-05T21:50:23.380Z,6.80
2019-01-05T21:53:19.468Z,5.93
2019-01-05T21:56:18.461Z,6.30
2019-01-05T21:59:03.940Z,6.27
2019-01-05T22:01:42.596Z,6.30
2019-01-05T22:04:41.635Z,6.80
2019-01-05T22:07:37.333Z,6.33
2019-01-05T22:10:23.848Z,5.83
2019-01-05T22:13:16.222Z,5.80
2019-01-05T22:16:01.594Z,6.10
2019-01-05T22:18:47.124Z,6.50
2019-01-05T22:21:46.632Z,6.40
2019-01-05T22:24:27.757Z,6.50
2019-01-05T22:27:17.363Z,13.67
2019-01-05T22:30:02.593Z,6.13
2019-01-05T22:33:01.257Z,7.20
2019-01-05T22:35:44.327Z,6.67
2019-01-05T22:38:30.119Z,6.10
2019-01-05T22:41:24.697Z,6.53
2019-01-05T22:44:11.490Z,6.10
2019-01-05T22:47:13.257Z,6.10
2019-01-05T22:50:02.860Z,6.57
2019-01-05T22:52:55.515Z,6.97
2019-01-05T22:55:41.263Z,6.63
2019-01-05T22:58:34.586Z,6.90
2019-01-05T23:01:33.402Z,6.43
2019-01-05T23:04:35.314Z,6.27
2019-01-05T23:07:17.697Z,6.87
2019-01-05T23:10:07.658Z,6.83
2019-01-05T23:12:53.395Z,6.10
2019-01-05T23:15:32.800Z,6.20
2019-01-05T23:18:26.710Z,6.97
2019-01-05T23:21:12.013Z,6.30
2019-01-05T23:24:10.462Z,6.40
2019-01-05T23:26:57.314Z,6.43
2019-01-05T23:29:58.665Z,7.27
2019-01-05T23:32:44.124Z,5.97
2019-01-05T23:35:29.101Z,7.10
2019-01-05T23:38:21.303Z,6.87
2019-01-05T23:41:26.266Z,6.93
2019-01-05T23:44:11.744Z,6.70
2019-01-05T23:47:06.187Z,6.33
2019-01-05T23:49:52.987Z,6.83
2019-01-05T23:52:34.746Z,6.80
2019-01-05T23:55:19.985Z,6.30
2019-01-05T23:58:15.257Z,6.90
